Terminal Aerodrome Forecast
Issued by NWS

Home | Current Version | Previous Version | Text Only | Print | Product List | Glossary On
Versions: 1 2 3 4 5 6 7 8 9 10 11 12 13 14 15 16 17
000
FTUS43 KTOP 202300
TAFMHK
TAF
KMHK 202320Z 2100/2124 04003KT P6SM SKC
     FM211000 00000KT 3SM BR SKC
     FM211400 14005KT P6SM SKC=

USA.gov is the U.S. government's official web portal to all federal, state and local government web resources and services.